Time;durP1;ratioP1;P1;durP2;ratioP2;P2;SDS_P1;SDS_P2;PMS_P1;PMS_P2;Temp;Humidity;BMP_temperature;BMP_pressure;BME280_temperature;BME280_humidity;BME280_pressure;Samples;Min_cycle;Max_cycle;Signal;HPM_P1;HPM_P2
2022/02/04 00:01:10;;;;;;;9.95;5.45;;;6.30;99.90;;;;;;5101874;28;20092;-58
2022/02/04 00:06:17;;;;;;;12.13;6.97;;;6.20;99.90;;;;;;5103835;28;20058;-59
2022/02/04 00:09:43;;;;;;;12.35;7.43;;;6.20;99.90;;;;;;5094312;28;20753;-58
2022/02/04 00:23:06;;;;;;;17.00;8.38;;;6.00;99.90;;;;;;5106008;28;20154;-59
2022/02/04 00:26:29;;;;;;;14.93;8.43;;;6.00;99.90;;;;;;5102359;28;20069;-59
2022/02/04 00:30:05;;;;;;;12.65;7.28;;;6.00;99.90;;;;;;5083443;28;20035;-59
2022/02/04 00:33:25;;;;;;;15.15;7.30;;;5.90;99.90;;;;;;5097725;28;20032;-58
2022/02/04 00:40:13;;;;;;;10.85;6.47;;;5.90;99.90;;;;;;5098275;28;20464;-60
2022/02/04 00:43:31;;;;;;;15.68;7.63;;;5.90;99.90;;;;;;5092881;28;20054;-58
2022/02/04 00:47:05;;;;;;;13.65;7.75;;;5.90;99.90;;;;;;5107257;28;20040;-59
2022/02/04 00:51:16;;;;;;;15.02;8.20;;;5.90;99.90;;;;;;5095417;28;20503;-59
2022/02/04 00:54:16;;;;;;;13.27;7.38;;;5.90;99.90;;;;;;5079403;28;20035;-59
2022/02/04 01:27:58;;;;;;;19.23;9.15;;;6.10;99.90;;;;;;5101832;28;20047;-60
2022/02/04 01:31:24;;;;;;;17.02;8.77;;;6.10;99.90;;;;;;5107378;28;20126;-59
2022/02/04 01:35:03;;;;;;;17.27;8.95;;;6.10;99.90;;;;;;5109332;28;20523;-59
2022/02/04 01:38:29;;;;;;;16.48;8.48;;;6.10;99.90;;;;;;5097049;28;20044;-58
2022/02/04 01:41:54;;;;;;;17.60;9.10;;;6.10;99.90;;;;;;5092579;28;20035;-57
2022/02/04 01:45:19;;;;;;;19.27;9.10;;;6.10;99.90;;;;;;5106028;28;20445;-59
2022/02/04 01:48:45;;;;;;;15.95;7.22;;;6.10;99.90;;;;;;5100135;28;20074;-59
2022/02/04 01:52:10;;;;;;;20.38;9.20;;;6.10;99.90;;;;;;5106684;28;20198;-60
2022/02/04 01:55:36;;;;;;;17.33;8.93;;;6.00;99.90;;;;;;5102343;28;20102;-57
2022/02/04 01:59:01;;;;;;;20.52;9.40;;;6.00;99.90;;;;;;5097543;28;20059;-58
2022/02/04 02:02:26;;;;;;;13.77;7.72;;;6.10;99.90;;;;;;5108428;28;20043;-59
2022/02/04 02:05:54;;;;;;;18.10;9.63;;;6.10;99.90;;;;;;5103097;28;20083;-58
2022/02/04 02:09:18;;;;;;;23.23;10.63;;;6.10;99.90;;;;;;5087701;28;20055;-59
2022/02/04 02:12:56;;;;;;;17.17;8.90;;;6.10;99.90;;;;;;5102976;28;20453;-58
2022/02/04 02:16:44;;;;;;;21.80;9.50;;;6.10;99.90;;;;;;5106562;28;20035;-59
2022/02/04 02:50:19;;;;;;;18.83;9.88;;;6.10;99.90;;;;;;5090956;28;20043;-59
2022/02/04 02:53:43;;;;;;;19.92;10.63;;;6.10;99.90;;;;;;5107287;28;20031;-59
2022/02/04 03:00:10;;;;;;;22.20;11.82;;;6.20;99.90;;;;;;5090979;28;20077;-59
2022/02/04 03:03:29;;;;;;;18.67;10.57;;;6.20;99.90;;;;;;5109020;28;20425;-59
2022/02/04 03:06:51;;;;;;;21.75;10.80;;;6.10;99.90;;;;;;5105673;28;20048;-58
2022/02/04 03:10:17;;;;;;;17.42;9.60;;;6.20;99.90;;;;;;5102722;28;20039;-59
2022/02/04 03:13:42;;;;;;;18.38;9.95;;;6.10;99.90;;;;;;5090020;28;20044;-59
2022/02/04 03:17:11;;;;;;;21.75;11.30;;;6.20;99.90;;;;;;5101347;28;20028;-59
2022/02/04 03:20:43;;;;;;;19.48;10.32;;;6.10;99.90;;;;;;5109307;28;20491;-58
2022/02/04 03:24:07;;;;;;;26.63;11.88;;;6.20;99.90;;;;;;5103198;28;20032;-59
2022/02/04 03:27:34;;;;;;;21.92;11.40;;;6.10;99.90;;;;;;5104656;28;20047;-58
2022/02/04 03:30:54;;;;;;;25.38;13.68;;;6.10;99.90;;;;;;5087880;28;20408;-58
2022/02/04 03:34:18;;;;;;;24.58;12.60;;;6.10;99.90;;;;;;5106426;28;20160;-58
2022/02/04 03:37:43;;;;;;;22.65;11.13;;;6.10;99.90;;;;;;5104578;28;20028;-58
2022/02/04 03:41:10;;;;;;;21.67;11.07;;;6.00;99.90;;;;;;5109619;28;20513;-59
2022/02/04 03:44:36;;;;;;;21.30;10.52;;;6.00;99.90;;;;;;5103544;28;20032;-58
2022/02/04 03:48:00;;;;;;;20.52;11.15;;;6.00;99.90;;;;;;5105180;28;20028;-60
2022/02/04 03:50:44;;;;;;;23.45;11.68;;;6.00;99.90;;;;;;5107416;28;20065;-60
2022/02/04 03:53:15;;;;;;;23.23;11.70;;;6.00;99.90;;;;;;5092018;28;20392;-59
2022/02/04 03:55:41;;;;;;;22.35;11.70;;;6.00;99.90;;;;;;5109055;28;20160;-60
2022/02/04 03:58:08;;;;;;;22.52;11.48;;;6.00;99.90;;;;;;5107900;28;20031;-59
2022/02/04 04:00:33;;;;;;;20.42;11.00;;;6.00;99.90;;;;;;5109255;28;20012;-59
2022/02/04 04:02:59;;;;;;;25.67;13.52;;;6.00;99.90;;;;;;5093765;28;20051;-60
2022/02/04 04:05:24;;;;;;;26.42;13.48;;;6.00;99.90;;;;;;5108586;28;20115;-60
2022/02/04 04:07:50;;;;;;;24.88;12.88;;;6.00;99.90;;;;;;5107434;28;20254;-60
2022/02/04 04:10:21;;;;;;;24.58;12.93;;;6.00;99.90;;;;;;5109411;28;20019;-59
2022/02/04 04:12:47;;;;;;;26.00;14.18;;;6.00;99.90;;;;;;5099460;28;20026;-59
2022/02/04 04:15:13;;;;;;;23.05;11.70;;;6.00;99.90;;;;;;5109092;28;20031;-60
2022/02/04 04:17:41;;;;;;;24.00;12.20;;;6.00;99.90;;;;;;5106611;28;20026;-60
2022/02/04 04:20:09;;;;;;;27.77;13.95;;;6.00;99.90;;;;;;5108661;28;20054;-59
2022/02/04 04:22:35;;;;;;;29.48;14.15;;;6.00;99.90;;;;;;5106854;28;20028;-59
2022/02/04 04:25:03;;;;;;;25.98;12.90;;;6.00;99.90;;;;;;5109098;28;20402;-59
2022/02/04 04:27:29;;;;;;;28.20;14.20;;;6.00;99.90;;;;;;5107089;28;20111;-60
2022/02/04 04:29:54;;;;;;;23.65;12.27;;;6.00;99.90;;;;;;5109083;28;20039;-59
2022/02/04 04:32:20;;;;;;;26.45;13.85;;;6.00;99.90;;;;;;5106897;28;20024;-59
2022/02/04 04:34:45;;;;;;;32.15;15.05;;;6.00;99.90;;;;;;5108852;28;20039;-60
2022/02/04 04:37:10;;;;;;;23.10;12.73;;;6.00;99.90;;;;;;5106998;28;20046;-59
2022/02/04 04:39:47;;;;;;;26.45;13.18;;;6.00;99.90;;;;;;5108993;28;20045;-60
2022/02/04 04:42:17;;;;;;;25.35;12.65;;;5.90;99.90;;;;;;5087825;28;20482;-59
2022/02/04 04:45:06;;;;;;;30.08;14.20;;;6.00;99.90;;;;;;5108660;28;20545;-60
2022/02/04 05:28:36;;;;;;;27.20;14.10;;;5.80;99.90;;;;;;5106731;28;20106;-60
2022/02/04 05:31:01;;;;;;;26.42;13.63;;;5.90;99.90;;;;;;5092544;28;20399;-60
2022/02/04 05:33:27;;;;;;;28.48;14.25;;;5.80;99.90;;;;;;5109784;28;20020;-60
2022/02/04 05:35:52;;;;;;;22.48;12.30;;;5.80;99.90;;;;;;5112423;28;20024;-60
2022/02/04 05:38:20;;;;;;;31.15;14.30;;;5.80;99.90;;;;;;5091945;28;20024;-60
2022/02/04 05:40:48;;;;;;;25.58;13.13;;;5.80;99.90;;;;;;5112260;28;20055;-60
2022/02/04 05:43:23;;;;;;;28.20;14.60;;;5.80;99.90;;;;;;5106515;28;20023;-60
2022/02/04 05:45:58;;;;;;;28.00;12.90;;;5.80;99.90;;;;;;5091822;28;20051;-60
2022/02/04 05:48:25;;;;;;;31.58;13.05;;;5.80;99.90;;;;;;5109379;28;20030;-59
2022/02/04 05:53:50;;;;;;;26.33;13.43;;;5.80;99.90;;;;;;5091694;28;20218;-60
2022/02/04 05:56:24;;;;;;;27.25;12.93;;;5.80;99.90;;;;;;5090938;28;20036;-60
2022/02/04 05:59:10;;;;;;;24.13;13.20;;;5.80;99.90;;;;;;5112086;28;20019;-60
2022/02/04 06:01:47;;;;;;;22.88;11.68;;;5.80;99.90;;;;;;5110238;28;20115;-60
2022/02/04 06:12:20;;;;;;;25.67;12.60;;;5.80;99.90;;;;;;5095316;28;20051;-59
2022/02/04 06:14:48;;;;;;;26.38;12.52;;;5.80;99.90;;;;;;5110133;28;20031;-60
2022/02/04 06:22:45;;;;;;;22.88;11.07;;;5.80;99.90;;;;;;5102652;28;20248;-60
2022/02/04 06:25:11;;;;;;;23.63;11.85;;;5.80;99.90;;;;;;5111308;28;20044;-60
2022/02/04 06:27:37;;;;;;;24.25;12.00;;;5.80;99.90;;;;;;5109561;28;20030;-60
2022/02/04 06:30:05;;;;;;;26.80;13.20;;;5.70;99.90;;;;;;5111285;28;20024;-59
2022/02/04 06:32:31;;;;;;;24.13;12.05;;;5.70;99.90;;;;;;5097577;28;20057;-60
2022/02/04 06:34:59;;;;;;;25.20;12.27;;;5.80;99.90;;;;;;5110825;28;20031;-60
2022/02/04 06:37:25;;;;;;;25.98;12.45;;;5.80;99.90;;;;;;5109185;28;20119;-60
2022/02/04 06:39:50;;;;;;;25.73;12.63;;;5.80;99.90;;;;;;5110524;28;20031;-60
2022/02/04 06:42:21;;;;;;;24.52;12.52;;;5.80;99.90;;;;;;5105250;28;20112;-59
2022/02/04 06:44:46;;;;;;;23.60;11.77;;;5.80;99.90;;;;;;5090814;28;20042;-60
2022/02/04 06:47:12;;;;;;;23.02;11.45;;;5.80;99.90;;;;;;5108271;28;20111;-60
2022/02/04 06:49:37;;;;;;;24.98;12.30;;;5.80;99.90;;;;;;5110889;28;20058;-60
2022/02/04 06:52:04;;;;;;;24.73;12.68;;;5.80;99.90;;;;;;5108896;28;20424;-59
2022/02/04 06:54:30;;;;;;;26.58;13.07;;;5.80;99.90;;;;;;5110727;28;20024;-60
2022/02/04 06:56:55;;;;;;;29.85;13.85;;;5.80;99.90;;;;;;5108886;28;20027;-60
2022/02/04 06:59:21;;;;;;;30.50;13.82;;;5.80;99.90;;;;;;5110812;28;20065;-60
2022/02/04 07:01:47;;;;;;;25.08;12.68;;;5.80;99.90;;;;;;5108764;28;20034;-60
2022/02/04 07:04:13;;;;;;;28.58;12.65;;;5.90;99.90;;;;;;5096881;28;20154;-59
2022/02/04 07:06:43;;;;;;;25.70;12.65;;;5.90;99.90;;;;;;5091497;28;20040;-60
2022/02/04 07:09:22;;;;;;;28.02;12.50;;;5.90;99.90;;;;;;5100252;28;20024;-60
2022/02/04 07:14:51;;;;;;;23.88;12.15;;;5.90;99.90;;;;;;5105466;28;20539;-60
2022/02/04 07:17:27;;;;;;;20.63;10.23;;;5.90;99.90;;;;;;5088373;28;20040;-60
2022/02/04 07:19:53;;;;;;;24.60;12.73;;;5.90;99.90;;;;;;5107877;28;20059;-60
2022/02/04 07:22:22;;;;;;;25.90;11.48;;;5.90;99.90;;;;;;5097751;28;20999;-60
2022/02/04 07:24:50;;;;;;;22.20;11.88;;;6.00;99.90;;;;;;5101367;28;20036;-60
2022/02/04 07:27:16;;;;;;;20.27;11.60;;;6.00;99.90;;;;;;5104873;28;20032;-60
2022/02/04 07:29:44;;;;;;;23.20;11.95;;;6.00;99.90;;;;;;5107636;28;20038;-60
2022/02/04 07:32:16;;;;;;;21.33;11.45;;;6.00;99.90;;;;;;5105421;28;20045;-59
2022/02/04 07:42:54;;;;;;;;;;;6.00;99.90;;;;;;5100250;28;20092;-60
2022/02/04 07:45:21;;;;;;;21.00;11.60;;;6.00;99.90;;;;;;5107055;28;19916;-59
2022/02/04 07:47:48;;;;;;;20.05;10.57;;;6.00;99.90;;;;;;5105521;28;20035;-59
2022/02/04 07:50:13;;;;;;;23.15;12.50;;;6.00;99.90;;;;;;5107315;28;20031;-60
2022/02/04 07:52:39;;;;;;;23.20;11.55;;;6.10;99.90;;;;;;5103814;28;20085;-59
2022/02/04 07:55:05;;;;;;;24.08;12.60;;;6.10;99.90;;;;;;5107689;28;20395;-59
2022/02/04 07:57:33;;;;;;;22.58;12.23;;;6.20;99.90;;;;;;5105224;28;20077;-60
2022/02/04 08:00:02;;;;;;;18.65;10.85;;;6.20;99.90;;;;;;5104674;28;20497;-59
2022/02/04 08:02:28;;;;;;;23.83;11.40;;;6.20;99.90;;;;;;5104838;28;20026;-60
2022/02/04 08:04:58;;;;;;;25.90;12.82;;;6.20;99.90;;;;;;5106740;28;20399;-60
2022/02/04 08:07:28;;;;;;;24.58;12.27;;;6.20;99.90;;;;;;5091380;28;20570;-59
2022/02/04 08:10:08;;;;;;;21.35;12.23;;;6.20;99.90;;;;;;5105465;28;20407;-60
2022/02/04 08:12:49;;;;;;;23.20;13.30;;;6.20;99.90;;;;;;5099004;28;20020;-60
2022/02/04 08:15:38;;;;;;;23.20;12.63;;;6.20;99.90;;;;;;5106497;28;20066;-59
2022/02/04 08:18:22;;;;;;;21.77;11.85;;;6.30;99.90;;;;;;5103032;28;20024;-60
2022/02/04 08:23:49;;;;;;;20.95;11.40;;;6.40;99.90;;;;;;5105125;28;20030;-59
2022/02/04 08:26:46;;;;;;;18.00;9.60;;;6.50;99.90;;;;;;5088590;28;20040;-59
2022/02/04 08:34:38;;;;;;;17.13;9.65;;;6.60;99.90;;;;;;5106833;28;20077;-59
2022/02/04 08:37:37;;;;;;;19.60;10.18;;;6.70;99.90;;;;;;5087421;28;20032;-59
2022/02/04 08:46:42;;;;;;;21.10;13.05;;;6.80;99.90;;;;;;5109005;28;20032;-60
2022/02/04 08:54:25;;;;;;;16.27;10.43;;;7.00;99.90;;;;;;5099130;28;20030;-60
2022/02/04 08:57:07;;;;;;;18.42;10.60;;;7.00;99.90;;;;;;5094750;28;20108;-60
2022/02/04 08:59:51;;;;;;;18.60;10.15;;;7.10;99.90;;;;;;5087434;28;20036;-59
2022/02/04 09:02:33;;;;;;;16.65;9.85;;;7.10;99.90;;;;;;5085916;28;20077;-60
2022/02/04 09:05:00;;;;;;;16.25;9.85;;;7.10;99.90;;;;;;5091862;28;20043;-60
2022/02/04 09:07:31;;;;;;;16.63;10.45;;;7.20;99.90;;;;;;5091200;28;20031;-61
2022/02/04 09:10:09;;;;;;;14.15;8.90;;;7.20;99.90;;;;;;5110069;28;20066;-59
2022/02/04 09:18:34;;;;;;;12.85;8.63;;;7.40;99.90;;;;;;5109379;28;20062;-60
2022/02/04 09:23:28;;;;;;;12.18;8.10;;;7.60;99.90;;;;;;5111563;28;20047;-60
2022/02/04 09:25:54;;;;;;;13.48;8.23;;;7.70;99.90;;;;;;5092227;28;20118;-62
2022/02/04 09:28:20;;;;;;;11.05;8.48;;;7.90;99.90;;;;;;5110964;28;20028;-60
2022/02/04 09:30:46;;;;;;;14.32;8.80;;;7.90;99.90;;;;;;5109434;28;20028;-60
2022/02/04 09:33:12;;;;;;;11.40;7.75;;;7.90;99.90;;;;;;5111535;28;20108;-61
2022/02/04 09:35:39;;;;;;;13.68;8.45;;;7.90;99.90;;;;;;5108868;28;20104;-60
2022/02/04 09:38:06;;;;;;;11.18;7.10;;;7.80;99.90;;;;;;5111369;28;20031;-60
2022/02/04 09:40:31;;;;;;;11.88;8.05;;;7.80;99.90;;;;;;5109250;28;20037;-60
2022/02/04 09:42:57;;;;;;;10.60;7.00;;;7.70;99.90;;;;;;5104561;28;20029;-61
2022/02/04 09:45:24;;;;;;;11.63;7.72;;;7.70;99.90;;;;;;5111000;28;20078;-60
2022/02/04 09:47:57;;;;;;;10.85;7.10;;;7.60;99.90;;;;;;5089253;28;20553;-61
2022/02/04 09:50:25;;;;;;;11.32;7.35;;;7.60;99.90;;;;;;5091046;28;20111;-58
2022/02/04 10:09:47;;;;;;;11.13;6.47;;;7.20;99.90;;;;;;5091448;28;20028;-57
2022/02/04 10:12:31;;;;;;;10.10;6.47;;;7.20;99.90;;;;;;5091918;28;20560;-58
2022/02/04 10:18:01;;;;;;;10.02;6.53;;;7.20;99.90;;;;;;5097503;28;20089;-59
2022/02/04 10:20:26;;;;;;;15.13;8.13;;;7.20;99.90;;;;;;5111490;28;20046;-58
2022/02/04 10:22:52;;;;;;;11.95;7.57;;;7.20;99.90;;;;;;5109563;28;20027;-55
2022/02/04 10:25:18;;;;;;;9.70;6.75;;;7.10;99.90;;;;;;5111324;28;20563;-60
2022/02/04 10:27:47;;;;;;;9.63;6.53;;;7.20;99.90;;;;;;5109534;28;20051;-57
2022/02/04 10:30:14;;;;;;;11.80;6.28;;;7.20;99.90;;;;;;5111486;28;20104;-59
2022/02/04 10:32:48;;;;;;;10.85;6.95;;;7.20;99.90;;;;;;5109238;28;20046;-58
2022/02/04 10:35:21;;;;;;;10.45;6.57;;;7.20;99.90;;;;;;5111539;28;20052;-59
2022/02/04 10:38:12;;;;;;;10.55;6.80;;;7.20;99.90;;;;;;5096428;28;20106;-58
2022/02/04 10:41:17;;;;;;;9.00;6.30;;;7.20;99.90;;;;;;5091098;28;20042;-58
2022/02/04 10:49:03;;;;;;;9.60;6.35;;;7.20;99.90;;;;;;5108639;28;20120;-59
2022/02/04 10:57:01;;;;;;;15.10;8.48;;;7.20;99.90;;;;;;5110843;28;20023;-58
2022/02/04 10:59:58;;;;;;;12.80;8.18;;;7.10;99.90;;;;;;5091017;28;20038;-58
2022/02/04 11:05:20;;;;;;;15.18;9.25;;;7.10;99.90;;;;;;5111119;28;20104;-59
2022/02/04 11:50:53;;;;;;;9.48;7.13;;;8.50;99.90;;;;;;5107958;28;20034;-59
2022/02/04 11:52:38;;;;;;;9.48;6.20;;;8.70;99.90;;;;;;5099847;28;20024;-59
2022/02/04 11:55:09;;;;;;;11.02;6.90;;;8.90;99.90;;;;;;5109798;28;20019;-58
2022/02/04 11:57:39;;;;;;;10.18;6.43;;;9.10;99.90;;;;;;5107504;28;20490;-58
2022/02/04 12:00:18;;;;;;;8.85;5.97;;;9.20;99.90;;;;;;5109854;28;20487;-59
2022/02/04 12:02:45;;;;;;;12.77;6.82;;;9.40;99.90;;;;;;5107370;28;20227;-59
2022/02/04 12:05:16;;;;;;;9.82;6.47;;;9.50;99.90;;;;;;5109537;28;20483;-59
2022/02/04 12:07:51;;;;;;;12.57;7.18;;;9.60;99.90;;;;;;5093729;28;20039;-59
2022/02/04 12:10:22;;;;;;;12.80;8.15;;;9.60;99.90;;;;;;5109754;28;20034;-58
2022/02/04 12:12:57;;;;;;;10.82;6.00;;;9.50;99.90;;;;;;5107370;28;20040;-58
2022/02/04 12:15:28;;;;;;;10.23;6.57;;;9.40;99.90;;;;;;5109197;28;20024;-59
2022/02/04 12:17:55;;;;;;;9.07;6.60;;;9.30;99.90;;;;;;5107193;28;20372;-59
2022/02/04 12:20:56;;;;;;;11.07;7.68;;;9.30;99.90;;;;;;5108676;28;20044;-59
2022/02/04 12:23:36;;;;;;;9.95;7.32;;;9.30;99.90;;;;;;5081056;28;20028;-59
2022/02/04 12:26:16;;;;;;;9.98;7.00;;;9.40;99.90;;;;;;5088854;28;20040;-58
2022/02/04 12:28:55;;;;;;;9.50;6.85;;;9.50;99.90;;;;;;5102188;28;20032;-59
2022/02/04 12:31:31;;;;;;;10.63;6.28;;;9.60;99.90;;;;;;5106529;28;20027;-58
2022/02/04 12:34:06;;;;;;;9.70;6.03;;;9.60;99.90;;;;;;5095926;28;20105;-57
2022/02/04 12:36:34;;;;;;;8.55;5.97;;;9.70;99.90;;;;;;5098587;28;20502;-58
2022/02/04 12:39:03;;;;;;;11.90;8.13;;;9.70;99.90;;;;;;5093553;28;20027;-59
2022/02/04 12:41:41;;;;;;;11.43;6.63;;;9.80;99.90;;;;;;5104365;28;20047;-59
2022/02/04 12:44:11;;;;;;;7.82;5.53;;;9.80;99.90;;;;;;5106098;28;20390;-58
2022/02/04 12:46:41;;;;;;;7.32;5.97;;;9.80;99.90;;;;;;5104612;28;20039;-59
2022/02/04 12:49:10;;;;;;;9.50;5.93;;;9.80;99.90;;;;;;5106664;28;20486;-58
2022/02/04 12:54:45;;;;;;;10.13;6.28;;;9.80;99.90;;;;;;5086246;28;20054;-59
2022/02/04 13:10:35;;;;;;;7.65;5.28;;;9.20;99.90;;;;;;5092656;28;20637;-59
2022/02/04 13:13:03;;;;;;;7.30;4.80;;;9.20;99.90;;;;;;5092930;28;20087;-59
2022/02/04 13:15:33;;;;;;;8.82;5.07;;;9.20;99.90;;;;;;5103659;28;20455;-59
2022/02/04 13:17:59;;;;;;;5.57;4.00;;;9.20;99.90;;;;;;5106390;28;20034;-59
2022/02/04 13:20:27;;;;;;;7.07;5.18;;;9.20;99.90;;;;;;5103760;28;20040;-59
2022/02/04 13:22:55;;;;;;;5.43;4.55;;;9.20;99.90;;;;;;5106125;28;20070;-59
2022/02/04 13:25:29;;;;;;;8.68;5.03;;;9.20;99.90;;;;;;5098529;28;20510;-59
2022/02/04 13:28:03;;;;;;;5.93;4.28;;;9.10;99.90;;;;;;5106116;28;20042;-59
2022/02/04 13:30:41;;;;;;;5.25;4.13;;;9.10;99.90;;;;;;5099041;28;20023;-59
2022/02/04 13:33:22;;;;;;;5.63;4.13;;;9.20;99.90;;;;;;5105571;28;20024;-59
2022/02/04 13:35:55;;;;;;;7.55;4.47;;;9.20;99.90;;;;;;5093954;28;20028;-59
2022/02/04 13:38:31;;;;;;;5.35;3.83;;;9.10;99.90;;;;;;5106071;28;20029;-59
2022/02/04 13:41:06;;;;;;;6.45;3.65;;;9.10;99.90;;;;;;5095411;28;20042;-59
2022/02/04 13:43:39;;;;;;;4.90;3.63;;;9.20;99.90;;;;;;5087036;28;20023;-59
2022/02/04 13:46:15;;;;;;;6.03;4.22;;;9.20;99.90;;;;;;5096535;28;20205;-59
2022/02/04 13:49:00;;;;;;;4.38;3.78;;;9.10;99.90;;;;;;5100766;28;20036;-59
2022/02/04 13:51:49;;;;;;;7.72;5.13;;;9.10;99.90;;;;;;5100669;28;20047;-59
2022/02/04 13:57:19;;;;;;;6.65;5.05;;;9.00;99.90;;;;;;5101180;28;20093;-59
2022/02/04 14:00:03;;;;;;;6.32;4.75;;;9.00;99.90;;;;;;5103320;28;20030;-59
2022/02/04 14:02:37;;;;;;;5.72;3.80;;;9.00;99.90;;;;;;5109116;28;20030;-59
2022/02/04 14:05:03;;;;;;;7.85;4.07;;;9.00;99.90;;;;;;5090774;28;20119;-59
2022/02/04 14:07:33;;;;;;;4.72;3.72;;;9.00;99.90;;;;;;5109115;28;20036;-59
2022/02/04 14:10:07;;;;;;;6.80;4.60;;;9.00;99.90;;;;;;5106799;28;20490;-59
2022/02/04 14:12:33;;;;;;;5.43;4.80;;;9.00;99.90;;;;;;5109100;28;20035;-59
2022/02/04 14:15:00;;;;;;;6.53;4.50;;;9.00;99.90;;;;;;5107199;28;20499;-59
2022/02/04 14:17:28;;;;;;;5.53;4.20;;;9.00;99.90;;;;;;5108972;28;20022;-59
2022/02/04 14:19:54;;;;;;;5.65;4.10;;;8.90;99.90;;;;;;5106730;28;20048;-59
2022/02/04 14:22:19;;;;;;;10.75;6.45;;;8.90;99.90;;;;;;5108811;28;20027;-59
2022/02/04 14:24:45;;;;;;;7.82;5.00;;;8.90;99.90;;;;;;5106933;28;20040;-59
2022/02/04 14:27:11;;;;;;;7.78;3.97;;;8.90;99.90;;;;;;5109218;28;20387;-59
2022/02/04 14:29:50;;;;;;;6.07;4.05;;;8.90;99.90;;;;;;5100237;28;20519;-59
2022/02/04 14:32:26;;;;;;;5.57;4.10;;;8.90;99.90;;;;;;5108164;28;20390;-59
2022/02/04 14:35:02;;;;;;;;;;;8.80;99.90;;;;;;5090411;28;20028;-59
2022/02/04 14:49:12;;;;;;;6.63;3.80;;;8.80;99.90;;;;;;5110703;28;19904;-59
2022/02/04 14:51:47;;;;;;;8.13;4.90;;;8.60;99.90;;;;;;5104047;28;20156;-59
2022/02/04 15:00:08;;;;;;;7.20;4.53;;;8.40;99.90;;;;;;5088651;28;20039;-59
2022/02/04 15:02:27;;;;;;;6.72;4.35;;;8.40;99.90;;;;;;5089927;28;20111;-59
2022/02/04 15:04:54;;;;;;;7.15;4.05;;;8.40;99.90;;;;;;5108790;28;20232;-59
2022/02/04 15:07:20;;;;;;;6.85;3.47;;;8.40;99.90;;;;;;5110649;28;20028;-59
2022/02/04 15:09:53;;;;;;;7.15;5.00;;;8.30;99.90;;;;;;5108487;28;20087;-59
2022/02/04 15:12:19;;;;;;;8.18;4.35;;;8.20;99.90;;;;;;5110555;28;20479;-59
2022/02/04 15:14:45;;;;;;;7.35;4.35;;;8.10;99.90;;;;;;5108450;28;20051;-59
2022/02/04 15:17:10;;;;;;;6.10;3.88;;;8.10;99.90;;;;;;5110449;28;20037;-59
2022/02/04 15:19:36;;;;;;;5.55;3.25;;;8.00;99.90;;;;;;5108149;28;20123;-59
2022/02/04 15:22:07;;;;;;;5.60;3.22;;;8.00;99.90;;;;;;5110443;28;20030;-59
2022/02/04 15:24:33;;;;;;;4.50;3.20;;;8.00;99.90;;;;;;5089828;28;20085;-59
2022/02/04 15:26:59;;;;;;;4.68;2.67;;;8.00;99.90;;;;;;5108260;28;20335;-59
2022/02/04 15:29:25;;;;;;;5.25;2.78;;;8.00;99.90;;;;;;5110039;28;20059;-59
2022/02/04 15:31:55;;;;;;;4.47;2.58;;;8.00;99.90;;;;;;5108332;28;20055;-59
2022/02/04 15:34:22;;;;;;;3.95;2.70;;;7.90;99.90;;;;;;5110084;28;20404;-59
2022/02/04 15:36:49;;;;;;;4.45;2.17;;;7.90;99.90;;;;;;5089421;28;20048;-59
2022/02/04 15:39:17;;;;;;;3.42;2.78;;;7.90;99.90;;;;;;5109359;28;20114;-59
2022/02/04 15:41:43;;;;;;;4.22;2.90;;;7.90;99.90;;;;;;5100426;28;20106;-59
2022/02/04 15:44:17;;;;;;;4.22;2.53;;;7.90;99.90;;;;;;5109901;28;20032;-59
2022/02/04 15:46:59;;;;;;;3.08;2.50;;;7.80;99.90;;;;;;5105781;28;20043;-59
2022/02/04 15:52:44;;;;;;;3.47;2.40;;;7.80;99.90;;;;;;5089517;28;20028;-65
2022/02/04 15:57:50;;;;;;;3.95;2.35;;;7.80;99.90;;;;;;5104924;28;20028;-65
2022/02/04 16:03:37;;;;;;;3.72;2.75;;;7.70;99.90;;;;;;5059366;28;20032;-66
2022/02/04 16:06:05;;;;;;;3.78;2.28;;;7.60;99.90;;;;;;5045137;28;20135;-69
2022/02/04 16:08:31;;;;;;;2.47;1.90;;;7.60;99.90;;;;;;5080409;28;20036;-66
2022/02/04 16:11:12;;;;;;;4.55;2.45;;;7.60;99.90;;;;;;5108571;28;20058;-67
2022/02/04 16:14:17;;;;;;;3.85;2.88;;;7.60;99.90;;;;;;5103694;28;20490;-63
2022/02/04 16:16:35;;;;;;;2.88;2.35;;;7.60;99.90;;;;;;5103009;28;20039;-64
2022/02/04 16:21:43;;;;;;;5.05;2.80;;;7.50;99.90;;;;;;5087771;28;20503;-63
2022/02/04 16:26:54;;;;;;;4.78;3.10;;;7.50;99.90;;;;;;5106336;28;20039;-64
2022/02/04 16:29:20;;;;;;;3.25;2.20;;;7.50;99.90;;;;;;5107580;28;20149;-64
2022/02/04 16:31:47;;;;;;;3.28;2.30;;;7.60;99.90;;;;;;5106008;28;20034;-64
2022/02/04 16:34:13;;;;;;;2.88;2.22;;;7.50;99.90;;;;;;5108199;28;20016;-64
2022/02/04 16:36:43;;;;;;;3.03;1.50;;;7.60;99.90;;;;;;5105699;28;20055;-64
2022/02/04 16:39:09;;;;;;;2.05;1.70;;;7.50;99.90;;;;;;5108177;28;20108;-63
2022/02/04 16:41:53;;;;;;;2.13;1.40;;;7.50;99.90;;;;;;5105638;28;20040;-63
2022/02/04 16:44:19;;;;;;;1.38;1.20;;;7.50;99.90;;;;;;5108193;28;20475;-63
2022/02/04 16:46:45;;;;;;;2.45;1.33;;;7.50;99.90;;;;;;5100963;28;20039;-63
2022/02/04 16:49:11;;;;;;;1.73;1.33;;;7.50;99.90;;;;;;5087508;28;20506;-63
2022/02/04 16:51:38;;;;;;;2.00;1.27;;;7.50;99.90;;;;;;5105334;28;20035;-63
2022/02/04 16:54:04;;;;;;;1.42;1.17;;;7.60;99.90;;;;;;5108109;28;20024;-62
2022/02/04 16:56:30;;;;;;;3.05;1.27;;;7.50;99.90;;;;;;5105997;28;20035;-63
2022/02/04 16:58:57;;;;;;;2.90;1.08;;;7.60;99.90;;;;;;5107898;28;20028;-63
2022/02/04 17:01:23;;;;;;;1.48;1.17;;;7.50;99.90;;;;;;5105427;28;20069;-63
2022/02/04 17:03:48;;;;;;;1.08;0.98;;;7.60;99.90;;;;;;5107826;28;20104;-63
2022/02/04 17:06:14;;;;;;;2.30;1.17;;;7.60;99.90;;;;;;5105852;28;20193;-63
2022/02/04 17:08:48;;;;;;;2.47;1.35;;;7.60;99.90;;;;;;5107842;28;20024;-63
2022/02/04 17:11:19;;;;;;;2.55;1.13;;;7.60;99.90;;;;;;5087634;28;20031;-63
2022/02/04 17:13:45;;;;;;;1.60;1.13;;;7.60;99.90;;;;;;5107715;28;20360;-63
2022/02/04 17:16:11;;;;;;;2.72;1.15;;;7.60;99.90;;;;;;5105560;28;20031;-62
2022/02/04 17:18:38;;;;;;;1.33;0.90;;;7.60;99.90;;;;;;5087411;28;20031;-64
2022/02/04 17:21:04;;;;;;;1.13;0.80;;;7.60;99.90;;;;;;5106763;28;20040;-65
2022/02/04 17:23:39;;;;;;;1.73;1.25;;;7.50;99.90;;;;;;5090074;28;20223;-66
2022/02/04 17:26:05;;;;;;;1.02;0.82;;;7.50;99.90;;;;;;5090984;28;20163;-64
2022/02/04 17:28:31;;;;;;;2.60;0.90;;;7.60;99.90;;;;;;5108898;28;20295;-65
2022/02/04 17:30:57;;;;;;;1.52;1.00;;;7.60;99.90;;;;;;5111700;28;20034;-66
2022/02/04 17:33:24;;;;;;;1.95;1.10;;;7.60;99.90;;;;;;5094080;28;20131;-64
2022/02/04 17:35:50;;;;;;;3.42;1.63;;;7.60;99.90;;;;;;5110789;28;20375;-62
2022/02/04 17:38:16;;;;;;;1.10;0.98;;;7.60;99.90;;;;;;5109039;28;20092;-64
2022/02/04 17:40:42;;;;;;;1.40;1.20;;;7.60;99.90;;;;;;5111192;28;20505;-65
2022/02/04 17:43:07;;;;;;;1.75;1.20;;;7.60;99.90;;;;;;5089173;28;20054;-66
2022/02/04 17:45:33;;;;;;;2.72;1.20;;;7.50;99.90;;;;;;5106642;28;20069;-65
2022/02/04 17:48:06;;;;;;;2.35;1.70;;;7.60;99.90;;;;;;5111261;28;20110;-65
2022/02/04 17:50:47;;;;;;;1.65;1.30;;;7.60;99.90;;;;;;5093637;28;20028;-63
2022/02/04 17:53:18;;;;;;;2.58;1.30;;;7.60;99.90;;;;;;5090966;28;20089;-64
2022/02/04 17:55:53;;;;;;;1.42;1.23;;;7.60;99.90;;;;;;5103934;28;20036;-63
2022/02/04 18:01:12;;;;;;;1.70;1.42;;;7.60;99.90;;;;;;5108520;28;20530;-64
2022/02/04 18:06:25;;;;;;;2.10;1.30;;;7.50;99.90;;;;;;5107348;28;20552;-64
2022/02/04 18:08:50;;;;;;;1.27;1.00;;;7.50;99.90;;;;;;5111036;28;20050;-64
2022/02/04 18:11:16;;;;;;;1.60;1.17;;;7.50;99.90;;;;;;5089177;28;20491;-64
2022/02/04 18:13:41;;;;;;;2.17;1.05;;;7.50;99.90;;;;;;5109964;28;20032;-64
2022/02/04 18:16:07;;;;;;;1.75;1.20;;;7.40;99.90;;;;;;5108487;28;20502;-65
2022/02/04 18:18:33;;;;;;;1.05;0.90;;;7.50;99.90;;;;;;5110408;28;20526;-64
2022/02/04 18:21:01;;;;;;;1.30;0.98;;;7.40;99.90;;;;;;5091381;28;20040;-65
2022/02/04 18:23:27;;;;;;;0.90;0.90;;;7.40;99.90;;;;;;5110390;28;20486;-65
2022/02/04 18:25:53;;;;;;;1.73;1.17;;;7.40;99.90;;;;;;5090339;28;20043;-63
2022/02/04 18:28:21;;;;;;;1.88;1.20;;;7.40;99.90;;;;;;5110059;28;20086;-64
2022/02/04 18:30:47;;;;;;;1.05;0.93;;;7.30;99.90;;;;;;5092920;28;20032;-63
2022/02/04 18:33:13;;;;;;;3.22;1.40;;;7.40;99.90;;;;;;5109637;28;20034;-63
2022/02/04 18:35:41;;;;;;;1.95;1.30;;;7.40;99.90;;;;;;5107334;28;20034;-63
2022/02/04 18:38:14;;;;;;;2.15;1.30;;;7.40;99.90;;;;;;5110206;28;20502;-63
2022/02/04 18:41:06;;;;;;;1.55;1.25;;;7.40;99.90;;;;;;5102426;28;20110;-64
2022/02/04 18:43:40;;;;;;;1.70;1.27;;;7.40;99.90;;;;;;5082969;28;20055;-64
2022/02/04 18:46:35;;;;;;;3.28;1.00;;;7.40;99.90;;;;;;5106066;28;20051;-64
2022/02/04 18:49:13;;;;;;;1.10;1.00;;;7.30;99.90;;;;;;5087720;28;20028;-64
2022/02/04 18:59:25;;;;;;;1.55;1.15;;;7.40;99.90;;;;;;5103618;28;20380;-63
2022/02/04 19:01:50;;;;;;;1.33;1.10;;;7.40;99.90;;;;;;5086864;28;20061;-63